Time;durP1;ratioP1;P1;durP2;ratioP2;P2;SDS_P1;SDS_P2;PMS_P1;PMS_P2;Temp;Humidity;BMP_temperature;BMP_pressure;BME280_temperature;BME280_humidity;BME280_pressure;Samples;Min_cycle;Max_cycle;Signal;HPM_P1;HPM_P2
2021/09/30 03:00:27;;;;;;;2.58;0.88;;;8.40;93.10;;;;;;4913097;29;20039;-92
2021/09/30 03:03:20;;;;;;;1.17;0.70;;;8.30;93.10;;;;;;4919228;29;20119;-92
2021/09/30 04:23:52;;;;;;;1.85;0.98;;;8.00;92.80;;;;;;4862155;29;20049;-90
2021/09/30 04:27:06;;;;;;;2.47;0.88;;;8.00;92.90;;;;;;4862964;29;20548;-92
2021/09/30 04:29:32;;;;;;;2.25;1.00;;;8.00;92.90;;;;;;4825091;29;20034;-91
2021/09/30 04:31:57;;;;;;;1.63;0.85;;;8.00;92.80;;;;;;4842286;29;20038;-92
2021/09/30 04:34:23;;;;;;;0.82;0.80;;;8.00;93.00;;;;;;4844486;29;20026;-91
2021/09/30 04:50:32;;;;;;;1.15;0.93;;;7.90;92.70;;;;;;4992855;23;20426;-86
2021/09/30 04:53:00;;;;;;;2.30;0.90;;;7.80;92.70;;;;;;4879717;29;20029;-85
2021/09/30 04:55:26;;;;;;;2.22;0.80;;;7.80;92.70;;;;;;4876899;29;20377;-86
2021/09/30 04:57:52;;;;;;;2.75;0.82;;;7.80;92.70;;;;;;4864372;29;20026;-86
2021/09/30 05:00:18;;;;;;;1.05;0.65;;;7.80;92.70;;;;;;4862604;29;20026;-84
2021/09/30 05:02:47;;;;;;;3.20;1.02;;;7.80;92.80;;;;;;4862115;29;20022;-87
2021/09/30 05:05:16;;;;;;;3.03;1.20;;;7.80;92.80;;;;;;4861088;29;20026;-85
2021/09/30 05:07:41;;;;;;;1.63;0.80;;;7.80;92.80;;;;;;4860405;29;20064;-87
2021/09/30 05:10:10;;;;;;;1.55;0.88;;;7.80;92.80;;;;;;4861518;29;20399;-86
2021/09/30 05:12:36;;;;;;;2.05;1.10;;;7.80;92.80;;;;;;4861401;29;20414;-85
2021/09/30 05:15:02;;;;;;;2.65;0.90;;;7.80;92.80;;;;;;4859949;29;20033;-87
2021/09/30 05:17:28;;;;;;;2.55;0.93;;;7.80;92.80;;;;;;4860276;29;20120;-86
2021/09/30 05:19:54;;;;;;;2.03;0.90;;;7.80;92.80;;;;;;4860425;29;20083;-86
2021/09/30 05:22:20;;;;;;;3.85;1.00;;;7.80;92.70;;;;;;4872987;29;20021;-84
2021/09/30 05:24:46;;;;;;;3.38;1.38;;;7.80;92.80;;;;;;4868626;29;20308;-85
2021/09/30 05:27:11;;;;;;;1.20;1.10;;;7.80;92.80;;;;;;4861133;29;20029;-85
2021/09/30 05:29:37;;;;;;;2.45;1.10;;;7.90;92.80;;;;;;4861367;29;20475;-88
2021/09/30 05:32:03;;;;;;;3.17;1.20;;;7.80;92.80;;;;;;4860419;29;20025;-85
2021/09/30 05:34:28;;;;;;;1.60;1.30;;;7.90;92.80;;;;;;4876564;29;20078;-84
2021/09/30 05:36:54;;;;;;;4.20;1.20;;;7.80;92.80;;;;;;4874734;29;20097;-87
2021/09/30 05:39:19;;;;;;;5.57;1.55;;;7.80;92.80;;;;;;4863819;29;20033;-88
2021/09/30 05:41:48;;;;;;;4.05;1.30;;;7.80;92.80;;;;;;4856895;29;20029;-87
2021/09/30 05:44:21;;;;;;;4.50;1.80;;;7.80;92.80;;;;;;4868295;29;20058;-88
2021/09/30 05:46:52;;;;;;;8.73;2.83;;;7.80;92.90;;;;;;4865410;29;20109;-87
2021/09/30 05:49:18;;;;;;;4.68;1.63;;;7.80;92.90;;;;;;4867061;29;20152;-88
2021/09/30 05:51:44;;;;;;;5.07;1.45;;;7.80;92.90;;;;;;4870246;29;20026;-88
2021/09/30 05:54:10;;;;;;;1.67;1.20;;;7.80;93.00;;;;;;4864213;29;20053;-87
2021/09/30 05:56:35;;;;;;;2.45;1.20;;;7.80;93.00;;;;;;4864535;29;20084;-89
2021/09/30 05:59:01;;;;;;;4.95;1.23;;;7.80;93.00;;;;;;4863981;29;20044;-89
2021/09/30 06:05:00;;;;;;;3.83;1.30;;;7.80;93.00;;;;;;4865602;29;20071;-87
2021/09/30 06:12:45;;;;;;;2.03;1.40;;;7.80;92.90;;;;;;4865536;29;20040;-87
2021/09/30 06:15:16;;;;;;;2.90;1.20;;;7.90;93.00;;;;;;4861277;29;20048;-89
2021/09/30 06:17:46;;;;;;;4.88;1.50;;;7.70;93.00;;;;;;4856901;29;20487;-89
2021/09/30 06:20:13;;;;;;;3.25;1.83;;;7.80;93.10;;;;;;4853503;29;20093;-90
2021/09/30 06:22:41;;;;;;;2.15;1.92;;;7.80;93.10;;;;;;4856051;29;20080;-89
2021/09/30 06:25:18;;;;;;;4.03;1.35;;;7.80;93.10;;;;;;4860912;29;20844;-92
2021/09/30 06:27:44;;;;;;;5.05;1.20;;;7.80;93.20;;;;;;4858018;29;21412;-85
2021/09/30 06:30:10;;;;;;;3.28;1.40;;;7.90;93.20;;;;;;4854744;29;20026;-88
2021/09/30 06:32:39;;;;;;;4.20;1.20;;;7.90;93.20;;;;;;4859911;29;20029;-86
2021/09/30 06:35:06;;;;;;;2.53;1.58;;;7.90;93.20;;;;;;4861197;29;20022;-87
2021/09/30 06:37:31;;;;;;;1.33;1.20;;;8.00;93.30;;;;;;4859086;29;20371;-87
2021/09/30 06:39:58;;;;;;;2.25;1.38;;;8.00;93.30;;;;;;4856898;29;20033;-86
2021/09/30 06:42:23;;;;;;;2.25;1.10;;;8.00;93.40;;;;;;4864205;29;20383;-87
2021/09/30 06:44:51;;;;;;;3.75;1.38;;;8.10;93.30;;;;;;4870524;29;20036;-87
2021/09/30 06:47:17;;;;;;;1.95;1.55;;;8.20;93.40;;;;;;4888848;29;20494;-87
2021/09/30 06:49:47;;;;;;;5.35;1.40;;;8.40;93.30;;;;;;4860730;29;20030;-87
2021/09/30 06:52:13;;;;;;;1.80;1.17;;;8.50;93.20;;;;;;4860734;29;20033;-88
2021/09/30 06:54:41;;;;;;;1.58;1.17;;;8.70;93.20;;;;;;4863276;29;20033;-88
2021/09/30 06:57:09;;;;;;;1.38;0.93;;;8.80;93.00;;;;;;4858961;29;20038;-88
2021/09/30 06:59:35;;;;;;;2.70;1.20;;;9.10;92.70;;;;;;4864393;29;20032;-88
2021/09/30 07:02:07;;;;;;;1.17;1.08;;;9.50;92.40;;;;;;4872997;29;20686;-87
2021/09/30 07:04:33;;;;;;;1.63;1.00;;;9.80;92.20;;;;;;4856111;29;20036;-85
2021/09/30 07:07:00;;;;;;;1.60;0.90;;;9.90;92.30;;;;;;4865791;29;20037;-86
2021/09/30 07:09:26;;;;;;;2.85;1.48;;;10.00;92.40;;;;;;4859693;29;20034;-87
2021/09/30 07:11:53;;;;;;;3.35;1.00;;;10.10;92.40;;;;;;4860613;29;20149;-87
2021/09/30 07:14:18;;;;;;;2.42;1.23;;;10.30;92.10;;;;;;4858090;29;20143;-87
2021/09/30 07:16:44;;;;;;;2.00;1.40;;;10.80;91.90;;;;;;4858564;29;20143;-87
2021/09/30 07:19:10;;;;;;;2.50;1.00;;;11.40;91.50;;;;;;4859479;29;20388;-87
2021/09/30 07:21:36;;;;;;;3.20;0.90;;;11.60;91.00;;;;;;4865894;29;20041;-87
2021/09/30 07:24:02;;;;;;;2.90;0.90;;;11.70;90.90;;;;;;4859988;29;20525;-87
2021/09/30 07:26:28;;;;;;;3.25;1.27;;;12.20;90.60;;;;;;4859040;29;20030;-87
2021/09/30 07:28:53;;;;;;;2.75;0.88;;;12.70;89.80;;;;;;4860482;29;20022;-87
2021/09/30 07:31:19;;;;;;;1.27;1.00;;;13.30;88.70;;;;;;4861358;29;20037;-87
2021/09/30 07:33:45;;;;;;;3.55;1.00;;;13.80;87.60;;;;;;4863931;29;20101;-86
2021/09/30 07:36:13;;;;;;;1.95;1.02;;;13.90;86.40;;;;;;4862505;29;20029;-86
2021/09/30 07:38:42;;;;;;;1.63;0.70;;;13.70;86.90;;;;;;4862434;29;20112;-87
2021/09/30 07:41:08;;;;;;;1.20;0.90;;;13.90;87.40;;;;;;4863041;29;20146;-86
2021/09/30 07:43:33;;;;;;;2.80;1.00;;;14.00;87.30;;;;;;4862167;29;20632;-87
2021/09/30 07:45:59;;;;;;;2.10;1.83;;;14.30;87.40;;;;;;4863433;29;20029;-86
2021/09/30 07:48:24;;;;;;;4.35;1.10;;;14.80;86.80;;;;;;4862805;29;20121;-85
2021/09/30 07:50:50;;;;;;;2.60;0.80;;;15.10;85.50;;;;;;4872754;29;20030;-85
2021/09/30 07:53:16;;;;;;;2.72;0.80;;;15.10;84.30;;;;;;4871761;29;20037;-86
2021/09/30 07:55:43;;;;;;;4.32;1.00;;;14.90;84.00;;;;;;4861746;29;20094;-86
2021/09/30 07:58:09;;;;;;;1.45;1.13;;;14.70;83.70;;;;;;4862256;29;20120;-86
2021/09/30 08:00:42;;;;;;;3.50;1.00;;;14.50;84.00;;;;;;4860823;29;20036;-85
2021/09/30 08:03:08;;;;;;;2.03;1.15;;;14.50;84.20;;;;;;4871636;29;20041;-85
2021/09/30 08:05:37;;;;;;;1.20;1.10;;;14.40;84.90;;;;;;4861172;29;20048;-86
2021/09/30 08:08:04;;;;;;;4.70;1.05;;;14.40;85.80;;;;;;4860674;29;20085;-85
2021/09/30 08:10:30;;;;;;;1.45;1.10;;;14.30;86.50;;;;;;4863687;29;20030;-87
2021/09/30 08:12:56;;;;;;;3.25;1.23;;;14.10;86.10;;;;;;4860451;29;20090;-86
2021/09/30 08:15:22;;;;;;;2.78;1.25;;;14.00;86.60;;;;;;4861026;29;20483;-86
2021/09/30 08:17:48;;;;;;;1.83;1.00;;;13.90;86.80;;;;;;4869039;29;20033;-86
2021/09/30 08:20:14;;;;;;;2.03;0.90;;;13.70;86.80;;;;;;4872966;29;20343;-86
2021/09/30 08:22:40;;;;;;;1.40;0.70;;;13.60;87.40;;;;;;4859458;29;20033;-86
2021/09/30 08:25:06;;;;;;;2.90;0.90;;;13.70;88.20;;;;;;4861736;29;20628;-86
2021/09/30 08:27:32;;;;;;;3.63;0.90;;;13.90;88.60;;;;;;4870443;29;20037;-86
2021/09/30 08:29:57;;;;;;;2.17;1.00;;;13.90;88.20;;;;;;4860502;29;20376;-87
2021/09/30 08:32:23;;;;;;;3.28;1.00;;;13.90;88.40;;;;;;4860141;29;20040;-87
2021/09/30 08:34:49;;;;;;;2.20;1.02;;;14.00;88.40;;;;;;4857423;29;20489;-85
2021/09/30 08:37:15;;;;;;;3.67;0.90;;;14.00;87.80;;;;;;4858534;29;20045;-86
2021/09/30 08:39:40;;;;;;;2.78;0.90;;;14.10;87.20;;;;;;4862145;29;20137;-85
2021/09/30 08:42:06;;;;;;;2.17;0.85;;;13.80;86.60;;;;;;4860027;29;20124;-85
2021/09/30 08:44:34;;;;;;;2.30;0.90;;;13.80;86.70;;;;;;4859358;29;20029;-86
2021/09/30 08:47:00;;;;;;;3.63;0.80;;;13.50;86.30;;;;;;4860354;29;20032;-86
2021/09/30 08:49:26;;;;;;;3.10;0.70;;;13.20;86.30;;;;;;4857881;29;20546;-85
2021/09/30 08:51:52;;;;;;;2.35;0.65;;;13.00;86.80;;;;;;4862099;29;20105;-86
2021/09/30 08:54:17;;;;;;;3.53;1.50;;;12.90;87.40;;;;;;4855371;29;20026;-84
2021/09/30 08:56:43;;;;;;;2.65;2.40;;;12.90;87.70;;;;;;4855121;29;20030;-85
2021/09/30 08:59:23;;;;;;;1.63;1.30;;;12.80;87.70;;;;;;4860073;29;20036;-86
2021/09/30 09:02:08;;;;;;;2.65;0.80;;;12.80;87.20;;;;;;4855699;29;20057;-85
2021/09/30 09:04:34;;;;;;;1.35;0.75;;;12.80;86.70;;;;;;4853205;29;20034;-84
2021/09/30 09:07:07;;;;;;;2.65;1.13;;;12.70;87.10;;;;;;4866913;29;20130;-86
2021/09/30 09:09:34;;;;;;;7.43;1.77;;;12.80;87.30;;;;;;4861454;29;20375;-86
2021/09/30 09:12:07;;;;;;;2.10;0.80;;;12.90;88.50;;;;;;4868008;29;20039;-86
2021/09/30 09:14:37;;;;;;;2.17;1.00;;;13.00;87.50;;;;;;4861168;29;20189;-86
2021/09/30 09:17:09;;;;;;;2.33;1.35;;;13.10;87.50;;;;;;4861118;29;20025;-86
2021/09/30 09:19:34;;;;;;;2.20;0.55;;;13.20;87.50;;;;;;4862236;29;20038;-85
2021/09/30 09:22:21;;;;;;;3.72;0.70;;;13.40;88.00;;;;;;4862477;29;20052;-85
2021/09/30 09:25:02;;;;;;;5.75;1.48;;;13.80;88.00;;;;;;4857505;29;20060;-85
2021/09/30 09:27:56;;;;;;;2.80;1.10;;;14.00;86.20;;;;;;4863252;29;20030;-85
2021/09/30 09:30:31;;;;;;;2.20;0.68;;;14.00;85.40;;;;;;4862000;29;20053;-86
2021/09/30 09:33:00;;;;;;;2.47;1.55;;;14.00;85.60;;;;;;4861574;29;20058;-85
2021/09/30 09:35:26;;;;;;;3.75;0.90;;;14.00;85.70;;;;;;4861206;29;20033;-85
2021/09/30 09:38:00;;;;;;;1.75;0.50;;;14.00;85.70;;;;;;4862706;29;20045;-86
2021/09/30 09:40:27;;;;;;;5.80;0.98;;;14.00;85.30;;;;;;4872367;29;20124;-88
2021/09/30 09:42:56;;;;;;;2.40;0.50;;;14.00;85.10;;;;;;4882756;29;20072;-85
2021/09/30 09:45:22;;;;;;;2.05;0.55;;;13.90;84.30;;;;;;4866507;29;20033;-85
2021/09/30 09:47:47;;;;;;;2.70;0.57;;;13.80;83.80;;;;;;4860322;29;20037;-85
2021/09/30 09:50:17;;;;;;;2.45;0.70;;;13.80;84.30;;;;;;4862209;29;20163;-85
2021/09/30 09:52:47;;;;;;;2.60;1.02;;;13.70;83.90;;;;;;4860384;29;20022;-86
2021/09/30 09:55:24;;;;;;;1.15;0.50;;;13.70;83.80;;;;;;4877892;29;20017;-85
2021/09/30 09:58:11;;;;;;;1.13;0.63;;;13.70;84.20;;;;;;4879101;29;20130;-84
2021/09/30 10:01:00;;;;;;;1.17;0.40;;;13.80;83.50;;;;;;4878087;29;20048;-85
2021/09/30 10:03:28;;;;;;;1.77;0.60;;;14.00;83.50;;;;;;4867004;29;20037;-85
2021/09/30 10:05:55;;;;;;;2.97;0.60;;;14.20;83.40;;;;;;4864646;29;20040;-86
2021/09/30 10:08:21;;;;;;;2.10;0.40;;;14.40;82.70;;;;;;4876973;29;20036;-85
2021/09/30 10:10:49;;;;;;;2.60;0.50;;;14.40;81.80;;;;;;4878344;29;20033;-85
2021/09/30 10:13:16;;;;;;;1.02;0.45;;;14.40;80.80;;;;;;4877581;29;20038;-85
2021/09/30 10:15:42;;;;;;;1.20;0.60;;;14.50;80.90;;;;;;4879320;29;20034;-84
2021/09/30 10:18:10;;;;;;;3.72;0.93;;;14.60;80.20;;;;;;4878347;29;20054;-84
2021/09/30 10:20:37;;;;;;;1.50;0.60;;;14.60;80.20;;;;;;4880567;29;20044;-85
2021/09/30 10:23:06;;;;;;;2.47;0.80;;;14.80;80.50;;;;;;4879639;29;20025;-86
2021/09/30 10:25:38;;;;;;;3.58;0.90;;;15.00;80.80;;;;;;4864075;29;20160;-85
2021/09/30 10:28:08;;;;;;;3.42;1.00;;;15.30;79.30;;;;;;4862271;29;20101;-85
2021/09/30 10:30:35;;;;;;;4.88;0.88;;;15.30;78.40;;;;;;4858017;29;20081;-85
2021/09/30 10:33:03;;;;;;;5.20;0.63;;;15.20;77.90;;;;;;4863603;29;20046;-86
2021/09/30 10:35:38;;;;;;;2.67;0.68;;;15.20;77.30;;;;;;4857536;29;20022;-86
2021/09/30 10:38:18;;;;;;;4.45;0.70;;;15.20;77.30;;;;;;4870798;29;20105;-86
2021/09/30 10:41:14;;;;;;;3.35;1.02;;;15.30;76.50;;;;;;4876742;29;20036;-87
2021/09/30 10:43:47;;;;;;;1.55;0.60;;;15.30;76.80;;;;;;4857961;29;20341;-86
2021/09/30 10:46:22;;;;;;;2.75;0.90;;;15.30;76.90;;;;;;4867406;29;20502;-86
2021/09/30 10:48:50;;;;;;;2.00;0.70;;;15.40;76.50;;;;;;4858870;29;20017;-87
2021/09/30 13:49:08;;;;;;;0.85;0.35;;;20.30;56.80;;;;;;4823806;29;20432;-91
2021/09/30 13:51:44;;;;;;;1.48;0.50;;;20.20;55.80;;;;;;4838061;29;20109;-91
2021/09/30 13:54:18;;;;;;;1.65;0.30;;;20.30;56.80;;;;;;4840237;29;20031;-90
2021/09/30 14:00:34;;;;;;;;;;;;;;;;;;;;;
2021/09/30 14:04:10;;;;;;;3.25;0.50;;;19.90;55.00;;;;;;4817182;29;20817;-91
2021/09/30 14:20:30;;;;;;;;;;;;;;;;;;;;;
2021/09/30 14:30:34;;;;;;;0.82;0.50;;;18.10;57.00;;;;;;4778139;30;20625;-91
2021/09/30 14:37:33;;;;;;;;;;;;;;;;;;;;;
2021/09/30 15:06:05;;;;;;;;;;;;;;;;;;;;;
2021/09/30 15:08:50;;;;;;;0.77;0.40;;;17.00;56.00;;;;;;4716014;30;20061;-91
2021/09/30 15:11:45;;;;;;;1.63;0.40;;;16.70;55.90;;;;;;4719413;30;20092;-89
2021/09/30 15:15:05;;;;;;;2.38;0.60;;;16.60;56.20;;;;;;4801058;29;20048;-90
2021/09/30 17:32:57;;;;;;;2.13;1.40;;;14.40;63.90;;;;;;4901554;29;20373;-91
2021/09/30 17:36:13;;;;;;;3.00;1.58;;;14.40;64.00;;;;;;4892465;29;20127;-90
2021/09/30 17:42:05;;;;;;;4.63;1.00;;;14.10;64.60;;;;;;4867023;29;20033;-91
2021/09/30 17:45:15;;;;;;;2.53;0.80;;;14.00;64.80;;;;;;4849401;29;20029;-91
2021/09/30 17:48:13;;;;;;;1.27;0.70;;;13.90;65.30;;;;;;4871377;29;20037;-91
2021/09/30 17:53:45;;;;;;;12.60;7.77;;;13.70;66.00;;;;;;4875381;29;20040;-92
2021/09/30 17:56:35;;;;;;;1.73;0.95;;;13.60;66.40;;;;;;4876351;29;20048;-92
2021/09/30 17:59:21;;;;;;;2.03;1.17;;;13.60;66.80;;;;;;4881074;29;20093;-91
2021/09/30 18:01:58;;;;;;;2.30;1.00;;;13.60;67.00;;;;;;4880094;29;20110;-91
2021/09/30 18:07:42;;;;;;;3.47;1.23;;;13.60;67.30;;;;;;4872596;29;20127;-91
2021/09/30 18:10:23;;;;;;;2.33;1.17;;;13.60;67.50;;;;;;4877344;29;20026;-91
2021/09/30 18:16:10;;;;;;;4.65;1.10;;;13.60;68.00;;;;;;4866966;29;20037;-91
2021/09/30 18:19:04;;;;;;;4.03;1.08;;;13.60;68.00;;;;;;4878064;29;20144;-92
2021/09/30 18:21:48;;;;;;;1.63;0.90;;;13.60;68.30;;;;;;4879532;29;20125;-91
2021/09/30 18:32:58;;;;;;;2.63;1.20;;;13.30;68.40;;;;;;4886421;29;20044;-90
2021/09/30 18:35:31;;;;;;;1.02;0.93;;;13.30;68.70;;;;;;4895521;29;20041;-89
2021/09/30 18:38:18;;;;;;;0.73;0.70;;;13.20;68.80;;;;;;4890683;29;20029;-90
2021/09/30 18:41:39;;;;;;;;;;;;;;;;;;;;;
2021/09/30 18:44:38;;;;;;;3.40;0.90;;;13.10;69.60;;;;;;4873603;29;20119;-91
2021/09/30 18:48:21;;;;;;;7.53;1.05;;;13.10;69.80;;;;;;4862549;29;20041;-92
2021/09/30 18:54:06;;;;;;;1.05;0.90;;;12.90;70.20;;;;;;4833907;29;20045;-91
2021/09/30 22:58:18;;;;;;;4.85;1.50;;;8.90;81.70;;;;;;4878292;29;20049;-91
2021/09/30 23:00:44;;;;;;;5.30;1.90;;;8.90;81.70;;;;;;4877504;29;20029;-91
2021/09/30 23:03:10;;;;;;;3.78;1.70;;;8.80;81.80;;;;;;4877494;29;20040;-91
2021/09/30 23:05:37;;;;;;;2.33;1.70;;;8.80;81.80;;;;;;4879426;29;20025;-89
2021/09/30 23:08:04;;;;;;;2.72;1.55;;;8.80;82.00;;;;;;4879607;29;20112;-90
2021/09/30 23:10:30;;;;;;;7.22;1.80;;;8.70;82.10;;;;;;4879047;29;20033;-89
2021/09/30 23:12:57;;;;;;;2.38;1.50;;;8.80;82.20;;;;;;4876988;29;20021;-89
2021/09/30 23:15:23;;;;;;;3.00;1.90;;;8.70;82.20;;;;;;4877982;29;20033;-90
2021/09/30 23:17:49;;;;;;;3.65;1.70;;;8.70;82.20;;;;;;4877832;29;20129;-89
2021/09/30 23:20:15;;;;;;;2.83;1.63;;;8.70;82.30;;;;;;4876267;29;20372;-89
2021/09/30 23:22:43;;;;;;;3.22;1.52;;;8.70;82.40;;;;;;4876858;29;20033;-90
2021/09/30 23:25:09;;;;;;;1.80;1.55;;;8.70;82.50;;;;;;4877722;29;20491;-90
2021/09/30 23:27:35;;;;;;;1.90;1.40;;;8.70;82.60;;;;;;4877259;29;20088;-91
2021/09/30 23:30:00;;;;;;;4.25;1.60;;;8.60;82.50;;;;;;4878348;29;20112;-90
2021/09/30 23:32:26;;;;;;;1.95;1.50;;;8.60;82.50;;;;;;4878925;29;20033;-89
2021/09/30 23:34:52;;;;;;;2.08;1.40;;;8.70;82.60;;;;;;4877423;29;20029;-90
2021/09/30 23:37:18;;;;;;;3.15;1.48;;;8.60;82.50;;;;;;4877851;29;20022;-90
2021/09/30 23:39:44;;;;;;;2.40;1.30;;;8.60;82.60;;;;;;4877673;29;20024;-90
2021/09/30 23:42:10;;;;;;;2.28;1.40;;;8.50;82.60;;;;;;4878757;29;20605;-90
2021/09/30 23:44:36;;;;;;;2.15;1.40;;;8.50;82.80;;;;;;4877155;29;20025;-90
2021/09/30 23:47:03;;;;;;;3.95;1.50;;;8.50;82.80;;;;;;4868722;29;20079;-90
2021/09/30 23:49:30;;;;;;;1.98;1.23;;;8.40;82.80;;;;;;4876458;29;20021;-90
2021/09/30 23:51:56;;;;;;;1.98;1.40;;;8.40;83.00;;;;;;4873325;29;20060;-89
2021/09/30 23:54:25;;;;;;;2.28;1.48;;;8.40;83.00;;;;;;4877125;29;20021;-90
2021/09/30 23:56:53;;;;;;;2.35;1.35;;;8.30;83.20;;;;;;4878833;29;20037;-90
2021/09/30 23:59:21;;;;;;;2.83;1.20;;;8.30;83.30;;;;;;4878070;29;20033;-90
